METAR Data
IDs: Format: Raw Decoded Include TAF

Data at: 2150 UTC 08 Aug 2020

KPHX 082051Z 26005KT 10SM FEW100 42/04 A2983 RMK AO2 SLP079 T04220044 58019
KPHX 081951Z 23005KT 10SM FEW100 FEW160 42/04 A2985 RMK AO2 SLP085 T04170044
KPHX 081851Z 02006KT 10SM FEW080 FEW100 41/04 A2987 RMK AO2 SLP093 T04060044
KPHX 081751Z 18003KT 10SM FEW100 40/07 A2989 RMK AO2 SLP099 T04000072 10400 20311 58004
KPHX 081651Z 12004KT 10SM FEW100 37/10 A2990 RMK AO2 SLP102 T03720100
KPHX 081551Z 00000KT 10SM FEW090 35/09 A2991 RMK AO2 SLP103 T03500094
KPHX 081451Z 00000KT 10SM FEW090 34/09 A2990 RMK AO2 SLP103 T03390094 51016
KPHX 081351Z 00000KT 10SM FEW080 32/11 A2989 RMK AO2 SLP099 T03170106
KPHX 081251Z 32003KT 10SM FEW090 32/08 A2987 RMK AO2 SLP092 T03220083
KPHX 081151Z 02004KT 10SM FEW100 FEW160 33/09 A2985 RMK AO2 SLP086 T03280094 10372 20317 53007
KPHX 081051Z 22003KT 10SM CLR 32/10 A2984 RMK AO2 SLP083 T03170100
KPHX 080951Z 28008KT 10SM CLR 35/09 A2984 RMK AO2 SLP080 T03500094
KPHX 080851Z 29004KT 10SM CLR 35/09 A2983 RMK AO2 SLP079 T03500094 51004
KPHX 080751Z 26006KT 10SM CLR 36/09 A2983 RMK AO2 SLP077 T03610094
KPHX 080651Z 25006KT 10SM CLR 36/09 A2983 RMK AO2 SLP077 T03610094 404280283
KPHX 080551Z 26008KT 10SM CLR 37/11 A2982 RMK AO2 SLP074 T03720106 10422 20367 51016
KPHX 080451Z 23005KT 10SM CLR 37/11 A2981 RMK AO2 SLP072 T03720106
KPHX 080351Z VRB04KT 10SM FEW120 FEW250 39/09 A2979 RMK AO2 SLP064 T03940094
KPHX 080251Z 03005KT 10SM FEW120 FEW250 40/09 A2977 RMK AO2 SLP059 T04000094 53001
KPHX 080151Z 02006KT 10SM FEW120 41/09 A2977 RMK AO2 SLP056 T04060089
KPHX 080051Z 14004KT 10SM FEW120 41/09 A2976 RMK AO2 SLP055 T04110089
KPHX 072351Z VRB06KT 10SM FEW120 42/07 A2977 RMK AO2 SLP057 T04170072 10428 20367 56021
KPHX 072251Z 00000KT 10SM FEW120 41/07 A2979 RMK AO2 SLP063 T04110067
KPHX 072151Z 16005KT 10SM FEW120 43/07 A2981 RMK AO2 SLP070 T04280067
KPHX 072051Z 06005KT 10SM FEW120 40/07 A2983 RMK AO2 SLP079 T04000067 58016
KPHX 071951Z 21005KT 10SM FEW120 FEW160 40/07 A2985 RMK AO2 SLP085 T04000072
KPHX 071851Z 00000KT 10SM FEW110 FEW160 38/08 A2987 RMK AO2 SLP091 T03830078
KPHX 071751Z VRB03KT 10SM FEW160 37/09 A2988 RMK AO2 SLP096 T03720089 10372 20283 50004
KPHX 071651Z 34006KT 10SM FEW160 36/09 A2989 RMK AO2 SLP099 T03560089
KPHX 071551Z 34005KT 10SM FEW160 34/08 A2988 RMK AO2 SLP095 T03440078
KPHX 071451Z 09004KT 10SM FEW160 33/07 A2987 RMK AO2 SLP091 T03280072 51022
KPHX 071351Z 09004KT 10SM FEW160 31/07 A2985 RMK AO2 SLP084 T03060067
KPHX 071251Z 08005KT 10SM FEW160 28/06 A2983 RMK AO2 SLP079 T02830061
KPHX 071151Z 08008KT 10SM CLR 29/06 A2980 RMK AO2 SLP068 T02940056 10356 20289 53010
KPHX 071051Z 07006KT 10SM CLR 31/07 A2978 RMK AO2 SLP062 T03060067
KPHX 070951Z 08006KT 10SM CLR 32/06 A2977 RMK AO2 SLP058 T03170061